Time;durP1;ratioP1;P1;durP2;ratioP2;P2;SDS_P1;SDS_P2;PMS_P1;PMS_P2;Temp;Humidity;BMP_temperature;BMP_pressure;BME280_temperature;BME280_humidity;BME280_pressure;Samples;Min_cycle;Max_cycle;Signal;HPM_P1;HPM_P2
2022/04/24 00:01:51;;;;;;;9.75;7.10;;;;;;;12.41;59.86;100804.28;4810051;29;123125;-86
2022/04/24 00:04:17;;;;;;;9.57;7.00;;;;;;;12.36;59.81;100788.38;4807363;29;120343;-85
2022/04/24 00:06:46;;;;;;;9.85;6.60;;;;;;;12.36;59.42;100785.63;4819666;29;119743;-87
2022/04/24 00:09:14;;;;;;;10.23;6.90;;;;;;;12.33;59.42;100789.31;4811882;29;120249;-86
2022/04/24 00:11:40;;;;;;;10.32;6.53;;;;;;;12.38;59.05;100803.22;4806242;29;119745;-86
2022/04/24 00:14:09;;;;;;;9.25;6.55;;;;;;;12.42;59.52;100806.56;4795174;29;122098;-88
2022/04/24 00:16:36;;;;;;;9.38;6.50;;;;;;;12.40;59.40;100809.00;4803049;29;120335;-87
2022/04/24 00:19:01;;;;;;;10.18;6.75;;;;;;;12.36;58.53;100810.41;4794537;29;119496;-88
2022/04/24 00:21:27;;;;;;;12.50;6.25;;;;;;;12.32;58.01;100813.31;4810232;29;120279;-87
2022/04/24 00:23:52;;;;;;;14.15;6.90;;;;;;;12.19;58.26;100798.94;4790279;29;123418;-87
2022/04/24 02:45:40;;;;;;;12.98;7.38;;;;;;;11.34;60.27;100702.31;4841125;28;118448;-91
2022/04/24 03:08:30;;;;;;;10.20;5.95;;;;;;;11.89;59.85;100748.38;3295728;23;122605;-91
2022/04/24 03:10:56;;;;;;;9.75;5.70;;;;;;;11.48;60.24;100689.97;4842003;28;121997;-91
2022/04/24 03:16:56;;;;;;;11.23;6.20;;;;;;;11.38;59.69;100680.97;4832404;28;120603;-92
2022/04/24 03:22:43;;;;;;;7.32;5.22;;;;;;;11.88;59.93;100741.34;4941643;23;120194;-93
2022/04/24 03:44:46;;;;;;;9.05;4.60;;;;;;;11.40;59.63;100672.28;5016430;23;120595;-91
2022/04/24 03:47:13;;;;;;;10.17;4.43;;;;;;;11.38;59.54;100669.22;4795800;29;119392;-92
2022/04/24 03:56:21;;;;;;;7.32;4.22;;;;;;;11.38;59.00;100663.75;4859955;23;119574;-93
2022/04/24 03:59:07;;;;;;;9.43;4.40;;;;;;;11.34;59.02;100655.63;4821182;29;119504;-91
2022/04/24 04:02:22;;;;;;;8.68;4.18;;;;;;;11.89;58.78;100740.13;4812992;29;121791;-92
2022/04/24 04:04:50;;;;;;;8.98;4.65;;;;;;;11.36;58.67;100671.66;4825238;29;120694;-91
2022/04/24 04:12:10;;;;;;;12.73;4.57;;;;;;;11.84;58.21;100755.25;4819207;29;119173;-93
2022/04/24 04:26:19;;;;;;;7.78;4.47;;;;;;;11.29;57.58;100682.94;4016884;23;120089;-91
2022/04/24 04:28:45;;;;;;;6.15;4.30;;;;;;;11.61;57.36;100722.81;4814441;29;118305;-92
2022/04/24 04:32:06;;;;;;;7.85;4.15;;;;;;;11.33;57.89;100675.31;4807152;29;120353;-91
2022/04/24 04:34:56;;;;;;;9.13;4.40;;;;;;;11.84;57.41;100751.72;4826103;29;118825;-91
2022/04/24 04:37:52;;;;;;;7.30;4.50;;;;;;;11.85;57.27;100747.75;4810285;29;120711;-93
2022/04/24 04:41:19;;;;;;;7.85;4.75;;;;;;;11.86;57.08;100746.53;4885398;23;120308;-92
2022/04/24 04:52:46;;;;;;;10.23;4.78;;;;;;;11.44;56.67;100677.63;5016064;23;120604;-91
2022/04/24 04:55:12;;;;;;;10.63;4.43;;;;;;;11.46;56.77;100694.41;4803790;29;120451;-92
2022/04/24 04:57:38;;;;;;;7.05;5.03;;;;;;;11.91;56.50;100751.44;4807320;29;118542;-92
2022/04/24 05:04:01;;;;;;;6.60;4.30;;;;;;;11.43;56.76;100676.09;4807502;29;118667;-92
2022/04/24 05:06:30;;;;;;;8.32;4.90;;;;;;;11.77;56.75;100727.25;4806981;29;118536;-91
2022/04/24 05:10:01;;;;;;;9.65;5.07;;;;;;;11.97;56.54;100755.09;4758686;29;119290;-92
2022/04/24 05:13:07;;;;;;;8.43;4.75;;;;;;;11.84;56.26;100727.75;4769259;29;121787;-92
2022/04/24 05:17:14;;;;;;;7.95;5.07;;;;;;;11.55;56.09;100684.19;4770127;29;118582;-92
2022/04/24 05:19:43;;;;;;;6.43;4.75;;;;;;;11.86;56.19;100730.81;4743035;29;120845;-92
2022/04/24 05:22:59;;;;;;;8.45;4.95;;;;;;;12.09;56.29;100753.41;4725050;29;118529;-91
2022/04/24 06:56:52;;;;;;;6.20;3.35;;;;;;;12.51;51.45;100688.25;4833292;29;119220;-92
2022/04/24 06:59:18;;;;;;;4.20;3.30;;;;;;;12.63;52.05;100708.53;4808396;29;121560;-91
2022/04/24 07:01:44;;;;;;;6.22;3.67;;;;;;;12.62;51.11;100689.75;4793075;29;118463;-90
2022/04/24 07:04:41;;;;;;;5.80;3.33;;;;;;;13.06;50.39;100756.88;4812089;29;120437;-92
2022/04/24 07:10:04;;;;;;;8.00;3.75;;;;;;;12.75;50.42;100690.31;4893981;23;119237;-92
2022/04/24 07:12:53;;;;;;;4.32;3.10;;;;;;;13.25;50.46;100762.31;4826688;28;121630;-93
2022/04/24 07:15:25;;;;;;;6.85;3.47;;;;;;;13.20;49.76;100755.44;4842839;28;118833;-92
2022/04/24 07:17:51;;;;;;;3.60;3.10;;;;;;;13.28;49.65;100762.16;4814727;28;119468;-91
2022/04/24 07:39:50;;;;;;;5.63;3.42;;;;;;;13.21;48.40;100723.91;4806210;29;118466;-92
2022/04/24 07:42:16;;;;;;;5.03;3.22;;;;;;;13.25;48.19;100709.97;4793080;29;120907;-91
2022/04/24 07:44:42;;;;;;;7.57;3.20;;;;;;;12.90;48.51;100672.66;4792238;29;122547;-92
2022/04/24 07:47:07;;;;;;;5.78;3.30;;;;;;;13.45;48.93;100732.97;4807390;29;118577;-94
2022/04/24 07:53:35;;;;;;;6.95;3.35;;;;;;;13.70;48.82;100742.75;4807188;29;121828;-92
2022/04/24 07:56:01;;;;;;;7.03;3.60;;;;;;;13.75;48.34;100722.84;4781204;29;118450;-92
2022/04/24 07:58:27;;;;;;;5.63;3.22;;;;;;;13.99;48.45;100736.59;4792138;29;121948;-93
2022/04/24 08:00:52;;;;;;;5.68;3.10;;;;;;;13.62;48.57;100669.94;4777630;29;118482;-93
2022/04/24 08:03:21;;;;;;;4.65;3.50;;;;;;;13.87;47.91;100679.69;4762404;29;121043;-92
2022/04/24 08:05:50;;;;;;;3.88;3.13;;;;;;;14.20;47.50;100722.94;4791285;29;119323;-93
2022/04/24 08:14:07;;;;;;;5.18;3.03;;;;;;;14.39;47.65;100700.19;5180847;23;120058;-92
2022/04/24 08:16:33;;;;;;;5.75;3.55;;;;;;;14.34;46.45;100669.75;4828926;29;118473;-93
2022/04/24 08:19:21;;;;;;;4.85;2.85;;;;;;;14.27;46.58;100664.59;4847775;28;119560;-92
2022/04/24 08:58:54;;;;;;;5.10;3.08;;;;;;;15.34;47.97;100701.63;4825620;28;123417;-93
2022/04/24 09:10:12;;;;;;;6.93;3.33;;;;;;;15.24;46.53;100686.44;961639;23;121707;-90
2022/04/24 09:12:40;;;;;;;6.63;3.08;;;;;;;15.04;46.37;100637.44;4839295;28;119851;-92
2022/04/24 09:15:07;;;;;;;7.43;3.15;;;;;;;15.17;45.52;100664.75;4822934;28;118552;-92
2022/04/24 09:21:00;;;;;;;8.32;3.20;;;;;;;15.21;45.75;100692.94;4789240;29;123002;-80
2022/04/24 09:23:34;;;;;;;7.03;2.88;;;;;;;15.20;45.59;100701.72;4790591;29;122857;-81
2022/04/24 09:25:59;;;;;;;8.30;3.37;;;;;;;15.11;46.20;100683.22;4806303;29;119946;-80
2022/04/24 09:28:35;;;;;;;5.80;2.97;;;;;;;15.09;45.98;100685.72;4776446;29;124946;-80
2022/04/24 09:31:05;;;;;;;5.30;3.47;;;;;;;15.10;45.98;100694.78;4810645;29;120538;-81
2022/04/24 09:33:43;;;;;;;5.03;3.08;;;;;;;15.18;45.77;100699.44;4776579;29;125017;-81
2022/04/24 09:36:11;;;;;;;5.18;3.08;;;;;;;15.20;45.84;100696.94;4805031;29;120421;-82
2022/04/24 09:38:45;;;;;;;3.83;3.00;;;;;;;15.16;46.24;100695.63;4771501;29;122347;-81
2022/04/24 09:41:15;;;;;;;5.97;3.00;;;;;;;15.15;45.74;100686.56;4763452;29;122227;-80
2022/04/24 09:43:42;;;;;;;6.05;3.05;;;;;;;15.20;46.13;100702.47;4790272;29;119627;-81
2022/04/24 09:46:07;;;;;;;5.03;3.20;;;;;;;15.08;46.85;100689.72;4789934;29;122098;-81
2022/04/24 09:48:33;;;;;;;7.68;3.22;;;;;;;15.17;46.56;100703.44;4801795;29;120529;-80
2022/04/24 09:50:59;;;;;;;6.38;3.40;;;;;;;15.17;46.71;100692.38;4805412;29;120117;-81
2022/04/24 09:53:27;;;;;;;4.50;2.95;;;;;;;15.26;47.08;100694.25;4805430;29;120330;-82
2022/04/24 09:55:54;;;;;;;5.70;3.45;;;;;;;15.28;46.68;100692.53;4800117;29;123061;-81
2022/04/24 09:58:22;;;;;;;5.03;3.33;;;;;;;15.42;46.41;100706.78;4802401;29;119916;-81
2022/04/24 10:00:53;;;;;;;6.22;3.38;;;;;;;15.33;46.30;100694.59;4791504;29;121299;-82
2022/04/24 10:03:20;;;;;;;4.60;3.28;;;;;;;15.40;45.81;100726.59;4790410;29;120209;-82
2022/04/24 10:05:47;;;;;;;7.07;3.92;;;;;;;15.34;46.34;100700.88;4778232;29;122110;-81
2022/04/24 10:08:17;;;;;;;4.90;3.47;;;;;;;15.44;46.28;100707.81;4792941;29;123225;-81
2022/04/24 10:10:43;;;;;;;5.97;3.60;;;;;;;15.35;45.93;100681.03;4792698;29;120000;-80
2022/04/24 10:13:11;;;;;;;5.13;3.70;;;;;;;15.45;46.13;100698.28;4793444;29;121580;-81
2022/04/24 10:15:54;;;;;;;7.57;3.75;;;;;;;15.51;46.34;100725.97;4794088;29;122873;-80
2022/04/24 10:18:39;;;;;;;4.80;3.35;;;;;;;15.46;45.93;100729.44;4791165;29;121771;-80
2022/04/24 10:21:35;;;;;;;7.90;3.88;;;;;;;15.49;46.49;100725.69;4795478;29;123104;-80
2022/04/24 10:24:08;;;;;;;5.57;3.30;;;;;;;15.55;46.95;100712.69;4808788;29;119521;-80
2022/04/24 10:26:35;;;;;;;3.97;3.20;;;;;;;15.61;46.48;100703.28;4808095;29;119762;-81
2022/04/24 10:29:04;;;;;;;5.63;3.67;;;;;;;15.77;46.16;100713.00;4792181;29;124370;-81
2022/04/24 10:31:41;;;;;;;6.53;3.85;;;;;;;15.80;46.53;100712.03;4793600;29;121333;-81
2022/04/24 10:34:06;;;;;;;5.20;3.83;;;;;;;15.91;46.13;100711.41;4793391;29;121865;-81
2022/04/24 10:36:32;;;;;;;7.20;4.15;;;;;;;15.99;45.27;100714.50;4793568;29;122975;-81
2022/04/24 10:39:16;;;;;;;5.38;3.55;;;;;;;15.90;44.86;100713.41;4797964;29;120321;-81
2022/04/24 10:41:52;;;;;;;7.82;3.80;;;;;;;15.96;45.66;100713.47;4790769;29;122847;-81
2022/04/24 10:44:22;;;;;;;6.03;3.80;;;;;;;16.03;46.12;100701.22;4793466;29;119944;-80
2022/04/24 10:46:49;;;;;;;5.45;3.58;;;;;;;16.22;44.57;100713.47;4778906;29;121857;-81
2022/04/24 10:49:16;;;;;;;7.47;4.15;;;;;;;16.14;44.89;100715.94;4794138;29;122778;-81
2022/04/24 11:13:19;;;;;;;7.05;3.88;;;;;;;16.11;44.93;100689.25;4802381;29;121119;-80
2022/04/24 11:15:48;;;;;;;5.90;4.05;;;;;;;16.18;45.89;100707.41;4804814;29;120708;-79
2022/04/24 11:18:25;;;;;;;4.95;3.88;;;;;;;16.27;45.85;100687.88;4787206;29;123311;-79
2022/04/24 11:20:56;;;;;;;8.60;4.07;;;;;;;16.37;45.51;100678.16;4789884;29;120983;-79
2022/04/24 11:23:25;;;;;;;5.63;3.97;;;;;;;16.33;43.93;100663.03;4782031;29;122120;-79
2022/04/24 11:25:55;;;;;;;8.30;4.20;;;;;;;16.28;44.65;100670.00;4807698;29;120628;-79
2022/04/24 11:28:21;;;;;;;4.90;3.90;;;;;;;16.36;44.85;100687.72;4811655;29;120389;-79
2022/04/24 11:30:46;;;;;;;7.78;4.07;;;;;;;16.34;45.08;100679.13;4814225;29;119873;-79
2022/04/24 11:33:12;;;;;;;8.00;4.40;;;;;;;16.41;44.09;100697.31;4798373;29;123344;-79
2022/04/24 11:35:39;;;;;;;7.22;4.00;;;;;;;16.28;44.23;100681.06;4798885;29;120708;-79
2022/04/24 11:38:07;;;;;;;7.22;4.32;;;;;;;16.28;45.21;100683.84;4812826;29;122576;-79
2022/04/24 11:40:35;;;;;;;7.00;4.50;;;;;;;16.41;44.89;100694.53;4792941;29;120018;-79
2022/04/24 11:43:03;;;;;;;5.90;4.13;;;;;;;16.52;44.62;100689.84;4813817;29;119564;-80
2022/04/24 11:51:16;;;;;;;7.10;4.40;;;;;;;16.64;44.69;100699.00;4814091;29;119920;-79
2022/04/24 11:53:43;;;;;;;5.47;4.60;;;;;;;16.64;43.75;100690.69;4801396;29;123927;-80
2022/04/24 11:56:11;;;;;;;8.07;4.65;;;;;;;16.62;43.70;100707.06;4812390;29;120809;-79
2022/04/24 11:58:39;;;;;;;9.77;5.60;;;;;;;16.54;43.58;100703.19;4811775;29;119811;-80
2022/04/24 12:01:07;;;;;;;6.93;4.65;;;;;;;16.55;43.81;100721.31;4797645;29;120901;-79
2022/04/24 12:03:35;;;;;;;7.45;4.85;;;;;;;16.39;43.69;100697.03;4798836;29;123581;-80
2022/04/24 12:06:10;;;;;;;6.43;4.70;;;;;;;16.35;44.08;100697.25;4811301;29;120540;-80
2022/04/24 12:08:45;;;;;;;7.18;4.57;;;;;;;16.29;44.24;100701.97;4779334;29;120100;-80
2022/04/24 12:11:31;;;;;;;11.82;4.43;;;;;;;16.17;43.68;100709.41;4801917;29;121063;-80
2022/04/24 12:14:11;;;;;;;6.20;4.80;;;;;;;16.09;44.00;100708.34;4808830;29;120522;-80
2022/04/24 12:17:04;;;;;;;6.47;4.78;;;;;;;16.00;44.77;100700.19;4785193;29;119900;-79
2022/04/24 12:19:29;;;;;;;9.00;4.85;;;;;;;16.07;45.20;100707.28;4780184;29;123650;-80
2022/04/24 12:21:55;;;;;;;7.18;4.65;;;;;;;16.10;44.96;100700.81;4808297;29;120512;-80
2022/04/24 12:24:21;;;;;;;6.25;4.13;;;;;;;16.22;44.82;100710.72;4797544;29;119770;-80
2022/04/24 12:26:52;;;;;;;5.72;4.70;;;;;;;16.27;43.27;100713.53;4796059;29;122908;-80
2022/04/24 12:29:19;;;;;;;6.45;4.55;;;;;;;16.13;44.11;100702.59;4792752;29;119718;-80
2022/04/24 12:31:46;;;;;;;7.10;4.80;;;;;;;16.31;44.54;100702.22;4784549;29;122060;-81
2022/04/24 12:34:12;;;;;;;9.02;4.95;;;;;;;16.41;44.48;100694.53;4774364;29;123719;-79
2022/04/24 12:36:52;;;;;;;9.60;5.00;;;;;;;16.62;44.06;100711.84;4790067;29;119682;-80
2022/04/24 12:39:25;;;;;;;6.70;5.00;;;;;;;16.86;43.93;100713.06;4781469;29;122308;-79
2022/04/24 12:41:51;;;;;;;8.02;4.78;;;;;;;16.94;43.99;100710.56;4807657;29;119528;-79
2022/04/24 12:44:17;;;;;;;7.88;4.78;;;;;;;17.03;42.86;100707.59;4779102;29;120499;-79
2022/04/24 12:46:43;;;;;;;7.40;4.72;;;;;;;17.07;43.16;100716.47;4796286;29;122949;-79
2022/04/24 12:49:09;;;;;;;9.27;4.53;;;;;;;17.04;43.09;100723.00;4797451;29;120616;-79
2022/04/24 12:51:38;;;;;;;8.32;4.45;;;;;;;17.04;43.58;100730.56;4793447;29;122537;-79
2022/04/24 12:54:03;;;;;;;9.05;4.95;;;;;;;17.07;43.45;100730.31;4770652;29;123442;-79
2022/04/24 12:56:30;;;;;;;8.52;5.07;;;;;;;16.97;43.24;100720.66;4798510;29;119797;-79
2022/04/24 12:58:58;;;;;;;6.15;4.55;;;;;;;16.93;43.11;100722.91;4769223;29;120432;-79
2022/04/24 13:01:26;;;;;;;5.30;4.60;;;;;;;16.83;43.38;100730.66;4797468;29;123401;-79
2022/04/24 13:03:54;;;;;;;9.23;4.93;;;;;;;16.79;43.33;100718.25;4783101;29;121983;-79
2022/04/24 13:06:25;;;;;;;7.43;4.78;;;;;;;16.61;42.76;100710.31;4814087;29;120489;-79
2022/04/24 13:08:52;;;;;;;9.48;4.90;;;;;;;16.68;44.26;100737.59;4787412;29;120245;-79
2022/04/24 13:11:17;;;;;;;9.27;4.80;;;;;;;16.67;44.87;100727.75;4800675;29;120131;-79
2022/04/24 13:13:43;;;;;;;9.88;4.47;;;;;;;16.80;44.99;100726.13;4757862;29;123439;-79
2022/04/24 13:18:55;;;;;;;8.63;4.78;;;;;;;16.91;43.72;100736.50;4814031;29;119883;-79
2022/04/24 13:21:22;;;;;;;7.13;4.68;;;;;;;16.84;43.94;100720.34;4792555;29;119917;-79
2022/04/24 13:23:48;;;;;;;7.82;5.32;;;;;;;16.94;44.11;100735.50;4802540;29;119925;-79
2022/04/24 13:26:14;;;;;;;6.57;4.80;;;;;;;16.98;44.57;100722.19;4790911;29;119994;-78
2022/04/24 13:28:39;;;;;;;7.30;4.75;;;;;;;17.04;44.15;100720.22;4794163;29;120108;-79
2022/04/24 13:31:05;;;;;;;7.05;4.70;;;;;;;16.96;43.85;100715.63;4784180;29;121556;-79
2022/04/24 13:33:31;;;;;;;5.50;4.20;;;;;;;16.98;43.33;100715.88;4810862;29;120193;-79
2022/04/24 13:35:58;;;;;;;11.27;4.88;;;;;;;16.94;43.17;100721.66;4814437;29;119895;-78
2022/04/24 13:38:24;;;;;;;8.02;4.35;;;;;;;16.86;43.58;100717.84;4799178;29;120229;-78
2022/04/24 13:40:54;;;;;;;9.07;3.95;;;;;;;16.85;43.20;100719.84;4781621;29;121668;-78
2022/04/24 13:43:22;;;;;;;8.77;4.03;;;;;;;16.80;42.81;100733.66;4794131;29;119839;-78
2022/04/24 13:45:49;;;;;;;9.27;4.57;;;;;;;16.68;42.14;100724.50;4813988;29;120147;-78
2022/04/24 13:48:14;;;;;;;6.55;4.30;;;;;;;16.56;43.23;100729.16;4808288;29;119965;-78
2022/04/24 13:50:40;;;;;;;6.60;4.25;;;;;;;16.53;43.81;100727.34;4794605;29;122792;-78
2022/04/24 13:53:06;;;;;;;6.72;4.50;;;;;;;16.56;44.21;100718.09;4798755;29;120218;-78
2022/04/24 13:55:34;;;;;;;6.68;4.47;;;;;;;16.63;43.90;100716.13;4786550;29;119788;-78
2022/04/24 13:58:00;;;;;;;8.43;4.43;;;;;;;16.70;43.97;100737.84;4794572;29;121577;-78
2022/04/24 14:00:26;;;;;;;5.47;4.47;;;;;;;16.61;43.68;100715.84;4805727;29;123660;-78
2022/04/24 14:02:53;;;;;;;6.40;4.47;;;;;;;16.61;44.00;100722.16;4797582;29;119968;-78
2022/04/24 14:05:22;;;;;;;7.32;4.47;;;;;;;16.61;43.50;100738.00;4803124;29;119412;-78
2022/04/24 14:07:49;;;;;;;6.35;4.30;;;;;;;16.46;43.61;100718.72;4767354;29;119874;-79
2022/04/24 14:10:16;;;;;;;9.25;4.53;;;;;;;16.47;44.09;100725.78;4766888;29;121638;-79
2022/04/24 14:12:42;;;;;;;6.95;4.63;;;;;;;16.48;44.57;100730.84;4781425;29;122960;-78
2022/04/24 14:15:08;;;;;;;8.32;4.35;;;;;;;16.41;43.83;100716.69;4780534;29;120179;-78
2022/04/24 14:17:34;;;;;;;8.00;4.65;;;;;;;16.32;44.25;100716.84;4773155;29;120760;-78
2022/04/24 14:20:01;;;;;;;6.57;4.72;;;;;;;16.32;44.38;100722.38;4797631;29;120007;-78
2022/04/24 14:22:30;;;;;;;8.93;5.00;;;;;;;16.23;44.25;100713.00;4784592;29;119569;-79
2022/04/24 14:24:58;;;;;;;8.85;4.78;;;;;;;16.07;44.80;100732.19;4800607;29;120264;-78
2022/04/24 14:27:24;;;;;;;7.10;5.28;;;;;;;15.96;45.12;100719.00;4770290;29;123201;-78
2022/04/24 14:29:52;;;;;;;8.95;5.40;;;;;;;15.88;45.51;100721.44;4783407;29;122136;-79
2022/04/24 14:32:19;;;;;;;8.07;5.95;;;;;;;15.92;45.57;100710.91;4780654;29;122918;-78
2022/04/24 14:34:46;;;;;;;9.07;5.00;;;;;;;16.05;45.92;100716.06;4768070;29;119976;-78
2022/04/24 14:37:12;;;;;;;7.53;5.05;;;;;;;16.13;46.02;100728.25;4782944;29;121747;-78
2022/04/24 14:39:39;;;;;;;7.88;5.65;;;;;;;16.08;44.87;100722.63;4809489;29;120406;-79
2022/04/24 14:42:06;;;;;;;6.70;5.30;;;;;;;15.94;45.20;100708.44;4787499;29;119781;-78
2022/04/24 14:44:37;;;;;;;6.90;5.70;;;;;;;15.97;45.41;100723.28;4786897;29;122048;-78
2022/04/24 14:58:05;;;;;;;12.90;5.47;;;;;;;15.74;45.12;100716.75;4810811;29;120236;-78
2022/04/24 15:00:32;;;;;;;8.05;4.90;;;;;;;15.58;46.43;100697.91;4787769;29;122940;-79
2022/04/24 15:02:59;;;;;;;9.52;5.43;;;;;;;15.56;46.42;100717.00;4798755;29;119870;-78
2022/04/24 15:05:25;;;;;;;10.60;5.53;;;;;;;15.50;46.59;100718.94;4799280;29;120102;-79
2022/04/24 15:07:51;;;;;;;7.68;5.10;;;;;;;15.40;47.29;100703.72;4780745;29;123427;-79
2022/04/24 15:10:20;;;;;;;7.43;5.03;;;;;;;15.41;47.91;100719.06;4782591;29;121707;-79
2022/04/24 15:12:46;;;;;;;10.98;5.55;;;;;;;15.35;47.52;100718.97;4766273;29;121995;-80
2022/04/24 15:15:12;;;;;;;7.43;5.10;;;;;;;15.22;47.85;100715.78;4781399;29;119943;-79
2022/04/24 15:17:44;;;;;;;8.93;5.60;;;;;;;15.17;48.42;100731.06;4782314;29;121717;-80
2022/04/24 15:20:11;;;;;;;8.35;5.85;;;;;;;15.11;48.26;100719.16;4782852;29;122897;-79
2022/04/24 15:22:38;;;;;;;7.50;5.53;;;;;;;14.95;48.29;100706.63;4801008;29;119695;-80
2022/04/24 15:25:04;;;;;;;7.95;5.88;;;;;;;14.95;49.57;100701.09;4769501;29;119889;-79
2022/04/24 15:27:30;;;;;;;9.27;5.72;;;;;;;14.97;49.47;100704.16;4803044;29;119952;-79
2022/04/24 15:29:57;;;;;;;8.95;5.80;;;;;;;15.09;49.58;100721.63;4796835;29;119884;-79
2022/04/24 15:32:23;;;;;;;10.40;6.30;;;;;;;15.04;50.17;100723.06;4762228;29;122090;-79
2022/04/24 15:34:49;;;;;;;11.68;7.18;;;;;;;15.07;52.70;100721.34;4806686;29;120331;-79
2022/04/24 15:37:19;;;;;;;11.02;6.68;;;;;;;15.01;52.08;100735.09;4790192;29;121382;-78
2022/04/24 15:39:45;;;;;;;14.30;7.00;;;;;;;15.03;52.86;100723.56;4800958;29;120044;-77
2022/04/24 15:42:10;;;;;;;11.68;7.68;;;;;;;14.93;53.65;100727.69;4791605;29;123465;-79
2022/04/24 15:47:21;;;;;;;12.02;7.47;;;;;;;14.55;54.65;100729.34;4804373;29;120355;-79
2022/04/24 15:49:50;;;;;;;7.95;6.82;;;;;;;14.39;54.82;100719.50;4789281;29;120461;-79
2022/04/24 15:52:16;;;;;;;11.50;6.68;;;;;;;14.31;54.29;100715.59;4790896;29;121811;-78
2022/04/24 15:54:42;;;;;;;9.80;6.82;;;;;;;14.32;53.72;100719.13;4777454;29;120077;-78
2022/04/24 15:57:08;;;;;;;10.55;6.93;;;;;;;14.40;54.31;100731.28;4796093;29;119740;-79
2022/04/24 15:59:35;;;;;;;11.75;7.35;;;;;;;14.40;54.88;100723.00;4787911;29;123281;-78
2022/04/24 16:02:01;;;;;;;12.25;7.25;;;;;;;14.42;54.73;100726.81;4772221;29;120085;-78
2022/04/24 16:04:29;;;;;;;13.05;6.70;;;;;;;14.46;55.11;100739.72;4803975;29;120455;-79
2022/04/24 16:06:56;;;;;;;9.57;6.38;;;;;;;14.49;53.98;100750.56;4793451;29;123372;-78
2022/04/24 16:09:22;;;;;;;9.23;6.45;;;;;;;14.39;53.04;100729.78;4790623;29;120592;-80
2022/04/24 16:11:49;;;;;;;10.30;6.65;;;;;;;14.31;53.43;100725.88;4793997;29;119963;-79
2022/04/24 16:14:16;;;;;;;10.88;6.20;;;;;;;14.36;53.73;100719.69;4792605;29;122839;-80
2022/04/24 16:16:42;;;;;;;10.60;6.38;;;;;;;14.58;53.40;100725.63;4800550;29;120404;-79
2022/04/24 16:19:08;;;;;;;9.27;6.43;;;;;;;14.70;53.16;100721.06;4794958;29;123049;-80
2022/04/24 16:21:35;;;;;;;10.68;6.78;;;;;;;14.90;53.26;100734.91;4793373;29;119887;-79
2022/04/24 16:24:03;;;;;;;10.77;6.03;;;;;;;14.97;52.46;100717.97;4797555;29;122130;-79
2022/04/24 16:26:29;;;;;;;10.73;6.75;;;;;;;15.02;52.01;100742.13;4808585;29;120058;-79
2022/04/24 16:28:54;;;;;;;10.02;6.85;;;;;;;14.90;52.30;100734.16;4797100;29;119994;-80
2022/04/24 16:31:20;;;;;;;11.10;6.28;;;;;;;14.87;52.63;100735.88;4809218;29;120248;-79
2022/04/24 16:33:47;;;;;;;13.68;6.47;;;;;;;14.78;51.93;100715.91;4811170;29;122368;-80
2022/04/24 16:36:13;;;;;;;10.18;6.88;;;;;;;14.64;52.17;100718.19;4811750;29;119663;-79
2022/04/24 16:38:38;;;;;;;13.82;7.32;;;;;;;14.51;52.42;100709.44;4813539;29;121300;-80
2022/04/24 16:41:04;;;;;;;10.60;6.82;;;;;;;14.45;52.78;100716.13;4797442;29;120121;-80
2022/04/24 16:43:30;;;;;;;12.18;6.60;;;;;;;14.40;53.08;100725.78;4793145;29;121983;-80
2022/04/24 16:46:00;;;;;;;11.27;6.57;;;;;;;14.31;52.90;100723.13;4793639;29;123178;-80
2022/04/24 16:48:29;;;;;;;13.00;7.13;;;;;;;14.20;53.98;100720.94;4793985;29;119788;-80
2022/04/24 16:59:07;;;;;;;;;;;;;;;14.06;54.04;100727.94;4806392;29;120079;-80
2022/04/24 17:01:33;;;;;;;11.85;7.50;;;;;;;13.99;53.88;100720.03;4781959;29;122400;-79
2022/04/24 17:03:59;;;;;;;9.55;6.75;;;;;;;13.99;54.09;100713.75;4796260;29;119855;-80
2022/04/24 17:06:26;;;;;;;11.25;6.70;;;;;;;14.04;53.89;100724.91;4795098;29;122418;-81
2022/04/24 17:08:52;;;;;;;9.93;6.80;;;;;;;13.98;54.18;100715.75;4807616;29;119634;-79
2022/04/24 17:11:18;;;;;;;12.35;6.90;;;;;;;14.10;54.53;100731.28;4764084;29;119992;-80
2022/04/24 17:13:43;;;;;;;11.48;6.97;;;;;;;14.07;54.25;100721.19;4792097;29;121247;-80
2022/04/24 17:16:10;;;;;;;9.80;6.93;;;;;;;14.18;54.00;100748.19;4791835;29;119617;-79
2022/04/24 17:18:37;;;;;;;10.32;6.78;;;;;;;14.16;52.75;100747.16;4777893;29;120336;-80
2022/04/24 17:21:05;;;;;;;10.32;6.47;;;;;;;14.06;52.72;100738.97;4789574;29;120948;-80
2022/04/24 17:23:34;;;;;;;10.35;6.60;;;;;;;13.92;52.95;100742.44;4776106;29;119791;-80
2022/04/24 17:26:02;;;;;;;8.20;6.30;;;;;;;13.87;52.78;100729.31;4776658;29;121103;-80
2022/04/24 17:28:29;;;;;;;8.48;6.30;;;;;;;13.88;53.06;100752.91;4777424;29;119652;-79
2022/04/24 17:30:55;;;;;;;9.02;6.68;;;;;;;13.84;53.37;100752.31;4777758;29;122183;-79
2022/04/24 17:33:21;;;;;;;9.27;6.68;;;;;;;13.73;53.70;100732.81;4776776;29;120720;-80
2022/04/24 17:35:46;;;;;;;11.00;6.75;;;;;;;13.75;53.81;100744.88;4777778;29;120043;-80
2022/04/24 17:38:12;;;;;;;11.18;6.13;;;;;;;13.80;54.04;100762.78;4776996;29;120190;-80
2022/04/24 17:40:40;;;;;;;11.43;6.70;;;;;;;13.78;54.23;100754.22;4789259;29;120310;-80
2022/04/24 17:43:06;;;;;;;9.15;7.15;;;;;;;13.78;54.54;100754.97;4776802;29;120316;-81
2022/04/24 17:45:31;;;;;;;10.40;6.85;;;;;;;13.70;54.47;100742.00;4777244;29;122300;-80
2022/04/24 17:47:57;;;;;;;9.02;6.43;;;;;;;13.80;54.76;100749.75;4792423;29;122275;-79
2022/04/24 17:50:26;;;;;;;12.07;6.97;;;;;;;13.82;54.84;100760.31;4790883;29;120280;-78
2022/04/24 17:52:52;;;;;;;10.35;6.72;;;;;;;13.81;55.02;100764.28;4789511;29;123408;-80
2022/04/24 17:55:19;;;;;;;10.02;7.15;;;;;;;13.78;54.84;100768.75;4776854;29;119862;-80
2022/04/24 17:57:45;;;;;;;10.30;6.60;;;;;;;13.71;54.93;100749.78;4777326;29;120535;-79
2022/04/24 18:00:11;;;;;;;9.20;6.95;;;;;;;13.75;54.97;100757.91;4789748;29;122672;-80
2022/04/24 18:02:40;;;;;;;10.38;7.18;;;;;;;13.74;55.09;100764.66;4762685;29;120502;-81
2022/04/24 18:05:09;;;;;;;7.85;6.65;;;;;;;13.74;54.66;100764.66;4794166;29;121531;-81
2022/04/24 18:07:36;;;;;;;9.88;6.60;;;;;;;13.71;55.01;100762.81;4777647;29;120934;-80
2022/04/24 18:10:03;;;;;;;10.13;7.20;;;;;;;13.75;54.63;100772.47;4791950;29;119600;-80
2022/04/24 18:12:29;;;;;;;10.43;7.30;;;;;;;13.73;54.45;100768.66;4777800;29;122208;-80
2022/04/24 18:14:55;;;;;;;11.10;6.55;;;;;;;13.62;54.83;100760.88;4792137;29;120054;-80
2022/04/24 18:17:24;;;;;;;10.95;6.30;;;;;;;13.58;54.70;100774.09;4775313;29;123372;-80
2022/04/24 18:19:54;;;;;;;6.47;5.47;;;;;;;13.62;54.72;100771.91;4785444;29;120638;-79
2022/04/24 18:22:21;;;;;;;9.15;6.03;;;;;;;13.61;54.31;100780.66;4779076;29;121451;-80
2022/04/24 18:24:47;;;;;;;9.68;6.20;;;;;;;13.54;53.95;100775.50;4777774;29;120966;-81
2022/04/24 18:27:12;;;;;;;10.52;6.07;;;;;;;13.49;54.05;100772.16;4796591;29;120463;-81
2022/04/24 18:29:38;;;;;;;10.38;5.75;;;;;;;13.42;54.09;100766.22;4790844;29;121889;-80
2022/04/24 18:32:04;;;;;;;6.80;5.38;;;;;;;13.44;54.27;100770.03;4777465;29;122572;-80
2022/04/24 18:34:30;;;;;;;10.65;5.85;;;;;;;13.45;53.94;100777.06;4772916;29;120684;-81
2022/04/24 18:39:40;;;;;;;9.38;5.47;;;;;;;13.45;53.94;100784.56;4789279;29;123712;-79
2022/04/24 18:42:09;;;;;;;6.45;5.20;;;;;;;13.39;54.14;100778.16;4775656;29;119877;-80
2022/04/24 18:44:36;;;;;;;9.75;4.97;;;;;;;13.31;54.55;100783.28;4792740;29;120389;-80
2022/04/24 18:47:04;;;;;;;5.80;5.15;;;;;;;13.34;54.25;100793.34;4788824;29;122985;-80
2022/04/24 18:49:31;;;;;;;6.80;5.55;;;;;;;13.28;54.32;100791.72;4779245;29;122660;-80
2022/04/24 18:51:58;;;;;;;6.72;5.05;;;;;;;13.25;54.75;100798.91;4763863;29;124727;-79
2022/04/24 18:54:24;;;;;;;6.85;5.10;;;;;;;13.10;54.47;100787.00;4792056;29;120015;-80
2022/04/24 18:56:52;;;;;;;6.10;5.05;;;;;;;13.17;54.96;100805.94;4777166;29;122268;-79